createdAt,value
2018-03-30T00:01:43.527Z,83.10
2018-03-30T00:04:11.759Z,83.60
2018-03-30T00:06:40.758Z,84.40
2018-03-30T00:09:09.689Z,84.60
2018-03-30T00:11:37.843Z,84.60
2018-03-30T00:14:05.998Z,84.90
2018-03-30T00:16:35.298Z,85.60
2018-03-30T00:19:04.245Z,85.90
2018-03-30T00:21:32.429Z,85.90
2018-03-30T00:24:01.634Z,86.80
2018-03-30T00:26:29.815Z,87.60
2018-03-30T00:28:57.964Z,87.80
2018-03-30T00:31:26.138Z,88.20
2018-03-30T00:33:54.479Z,88.40
2018-03-30T00:36:22.672Z,88.70
2018-03-30T00:38:50.859Z,89.00
2018-03-30T00:41:19.074Z,89.90
2018-03-30T00:43:47.306Z,89.80
2018-03-30T00:46:15.550Z,90.00
2018-03-30T00:48:43.718Z,90.10
2018-03-30T00:51:12.629Z,90.30
2018-03-30T00:53:50.828Z,90.30
2018-03-30T00:56:18.953Z,90.40
2018-03-30T00:58:47.197Z,90.50
2018-03-30T01:01:15.588Z,90.50
2018-03-30T01:03:43.742Z,90.50
2018-03-30T01:06:11.903Z,90.50
2018-03-30T01:08:40.061Z,90.50
2018-03-30T01:11:10.210Z,90.60
2018-03-30T01:13:38.358Z,90.60
2018-03-30T01:16:07.271Z,90.80
2018-03-30T01:18:35.405Z,90.70
2018-03-30T01:21:03.597Z,90.80
2018-03-30T01:23:31.860Z,91.00
2018-03-30T01:26:00.910Z,91.00
2018-03-30T01:28:29.054Z,91.00
2018-03-30T01:30:57.280Z,90.70
2018-03-30T01:33:25.465Z,90.90
2018-03-30T01:35:53.817Z,90.90
2018-03-30T01:38:22.042Z,91.00
2018-03-30T01:40:51.377Z,91.10
2018-03-30T01:43:19.515Z,91.10
2018-03-30T01:45:48.443Z,91.50
2018-03-30T01:48:16.997Z,91.50
2018-03-30T01:50:45.163Z,91.50
2018-03-30T01:53:13.932Z,91.50
2018-03-30T01:55:42.101Z,91.80
2018-03-30T01:58:10.316Z,91.80
2018-03-30T02:00:38.474Z,91.90
2018-03-30T02:03:06.617Z,92.20
2018-03-30T02:05:34.821Z,92.20
2018-03-30T02:08:03.203Z,92.20
2018-03-30T02:10:31.673Z,92.10
2018-03-30T02:12:59.874Z,92.20
2018-03-30T02:15:28.203Z,92.30
2018-03-30T02:17:56.520Z,92.50
2018-03-30T02:20:24.669Z,92.50
2018-03-30T02:22:53.594Z,93.00
2018-03-30T02:25:21.801Z,92.90
2018-03-30T02:27:49.961Z,92.90
2018-03-30T02:30:18.287Z,92.90
2018-03-30T02:32:47.290Z,92.90
2018-03-30T02:35:16.308Z,93.00
2018-03-30T02:37:45.382Z,93.00
2018-03-30T02:40:14.501Z,93.10
2018-03-30T02:42:42.849Z,93.00
2018-03-30T02:45:11.758Z,93.00
2018-03-30T02:47:40.453Z,93.00
2018-03-30T02:50:08.919Z,92.90
2018-03-30T02:52:37.254Z,92.90
2018-03-30T02:55:05.408Z,93.10
2018-03-30T02:57:33.771Z,93.00
2018-03-30T03:00:01.927Z,93.10
2018-03-30T03:02:30.072Z,93.10
2018-03-30T03:04:58.250Z,93.00
2018-03-30T03:07:26.487Z,93.00
2018-03-30T03:09:55.452Z,93.00
2018-03-30T03:12:25.147Z,92.60
2018-03-30T03:14:53.405Z,92.70
2018-03-30T03:17:22.330Z,92.90
2018-03-30T03:19:50.639Z,92.90
2018-03-30T03:22:18.951Z,92.90
2018-03-30T03:24:47.860Z,93.00
2018-03-30T03:27:16.649Z,92.90
2018-03-30T03:29:44.804Z,92.80
2018-03-30T03:32:13.756Z,92.90
2018-03-30T03:34:41.900Z,92.90
2018-03-30T03:37:10.264Z,92.80
2018-03-30T03:39:38.571Z,93.20
2018-03-30T03:42:06.928Z,92.80
2018-03-30T03:44:35.098Z,92.70
2018-03-30T03:47:03.221Z,92.80
2018-03-30T03:49:31.381Z,92.80
2018-03-30T03:51:59.570Z,92.70
2018-03-30T03:54:27.715Z,92.70
2018-03-30T03:56:55.848Z,92.70
2018-03-30T03:59:24.773Z,92.80
2018-03-30T04:01:52.926Z,92.80
2018-03-30T04:04:21.110Z,92.60
2018-03-30T04:06:49.378Z,92.60
2018-03-30T04:09:17.612Z,92.70
2018-03-30T04:11:45.833Z,92.70
2018-03-30T04:14:14.186Z,92.80
2018-03-30T04:16:43.079Z,93.00
2018-03-30T04:19:11.983Z,92.80
2018-03-30T04:21:40.224Z,92.80
2018-03-30T04:24:08.361Z,92.90
2018-03-30T04:26:36.492Z,92.80
2018-03-30T04:29:05.586Z,92.90
2018-03-30T04:31:33.886Z,92.90
2018-03-30T04:34:02.002Z,93.00
2018-03-30T04:36:30.165Z,93.10
2018-03-30T04:38:58.301Z,92.90
2018-03-30T04:41:26.430Z,92.90
2018-03-30T04:43:54.572Z,92.90
2018-03-30T04:46:22.693Z,92.90
2018-03-30T04:48:50.813Z,92.90
2018-03-30T04:51:19.071Z,93.00
2018-03-30T04:53:47.287Z,92.90
2018-03-30T04:56:15.570Z,92.90
2018-03-30T04:58:43.736Z,93.00
2018-03-30T05:01:11.918Z,92.90
2018-03-30T05:03:40.307Z,93.10
2018-03-30T05:06:08.454Z,93.30
2018-03-30T05:08:36.692Z,93.20
2018-03-30T05:11:06.867Z,93.30
2018-03-30T05:13:35.332Z,93.40
2018-03-30T05:16:03.476Z,93.30
2018-03-30T05:18:31.624Z,93.20
2018-03-30T05:21:01.144Z,93.20
2018-03-30T05:23:29.309Z,93.20
2018-03-30T05:25:58.223Z,93.30
2018-03-30T05:28:26.564Z,93.30
2018-03-30T05:30:55.590Z,93.30
2018-03-30T05:33:23.735Z,93.30
2018-03-30T05:35:52.826Z,93.40
2018-03-30T05:38:21.763Z,93.90
2018-03-30T05:40:49.970Z,93.60
2018-03-30T05:43:18.173Z,93.80
2018-03-30T05:45:46.318Z,93.90
2018-03-30T05:48:14.450Z,93.90
2018-03-30T05:50:42.755Z,94.00
2018-03-30T05:53:11.098Z,94.00
2018-03-30T05:55:39.266Z,93.90
2018-03-30T05:58:07.505Z,93.80
2018-03-30T06:00:35.623Z,93.80
2018-03-30T06:03:03.794Z,93.90
2018-03-30T06:05:31.987Z,93.90
2018-03-30T06:08:00.127Z,93.80
2018-03-30T06:10:29.053Z,94.00
2018-03-30T06:12:58.022Z,94.00
2018-03-30T06:15:26.147Z,94.10
2018-03-30T06:17:54.346Z,94.50
2018-03-30T06:20:22.552Z,94.30
2018-03-30T06:22:50.813Z,93.60
2018-03-30T06:25:19.091Z,93.30
2018-03-30T06:27:47.294Z,93.30
2018-03-30T06:30:15.520Z,92.90
2018-03-30T06:32:44.523Z,90.30
2018-03-30T06:35:13.452Z,90.10
2018-03-30T06:37:41.593Z,90.10
2018-03-30T06:40:09.725Z,88.60
2018-03-30T06:42:37.907Z,87.60
2018-03-30T06:45:06.147Z,87.10
2018-03-30T06:47:34.289Z,86.60
2018-03-30T06:50:02.554Z,87.00
2018-03-30T06:52:31.466Z,86.80
2018-03-30T06:55:00.350Z,86.80
2018-03-30T06:57:28.567Z,87.10
2018-03-30T06:59:56.771Z,87.00
2018-03-30T07:02:24.903Z,86.50
2018-03-30T07:04:53.208Z,85.80
2018-03-30T07:07:22.869Z,85.60
2018-03-30T07:09:51.044Z,85.60
2018-03-30T07:12:19.224Z,85.10
2018-03-30T07:14:47.450Z,83.90
2018-03-30T07:17:15.597Z,83.50
2018-03-30T07:19:43.759Z,82.40
2018-03-30T07:22:12.718Z,80.10
2018-03-30T07:24:40.872Z,80.10
2018-03-30T07:27:11.228Z,78.40
2018-03-30T07:29:39.377Z,78.30
2018-03-30T07:32:08.290Z,78.40
2018-03-30T07:34:36.439Z,78.40
2018-03-30T07:37:05.799Z,77.90
2018-03-30T07:39:33.931Z,77.80
2018-03-30T07:42:02.121Z,78.00
2018-03-30T07:44:30.240Z,77.10
2018-03-30T07:46:58.379Z,75.90
2018-03-30T07:49:26.978Z,75.80
2018-03-30T07:51:55.103Z,74.90
2018-03-30T07:54:23.240Z,74.40
2018-03-30T07:56:51.417Z,73.70
2018-03-30T07:59:19.531Z,73.50
2018-03-30T08:01:47.673Z,73.80
2018-03-30T08:04:15.903Z,72.80
2018-03-30T08:06:44.150Z,73.10
2018-03-30T08:09:12.305Z,72.40
2018-03-30T08:11:41.237Z,70.60
2018-03-30T08:14:09.394Z,70.40
2018-03-30T08:16:37.531Z,71.00
2018-03-30T08:19:05.843Z,70.50
2018-03-30T08:21:33.973Z,69.90
2018-03-30T08:24:02.341Z,70.00
2018-03-30T08:26:30.649Z,68.60
2018-03-30T08:28:59.546Z,67.20
2018-03-30T08:31:28.570Z,67.00
2018-03-30T08:33:56.807Z,66.90
2018-03-30T08:36:26.001Z,66.20
2018-03-30T08:38:54.918Z,66.50
2018-03-30T08:41:23.482Z,66.50
2018-03-30T08:43:52.383Z,65.80
2018-03-30T08:46:20.516Z,65.70
2018-03-30T08:48:48.678Z,63.90
2018-03-30T08:51:16.820Z,63.60
2018-03-30T08:53:44.964Z,63.50
2018-03-30T08:56:13.964Z,63.90
2018-03-30T08:58:42.865Z,61.50
2018-03-30T09:01:11.064Z,61.40
2018-03-30T09:03:39.318Z,62.10
2018-03-30T09:06:07.449Z,62.30
2018-03-30T09:08:35.758Z,62.00
2018-03-30T09:11:04.699Z,61.70
2018-03-30T09:13:32.837Z,61.70
2018-03-30T09:16:00.988Z,61.00
2018-03-30T09:18:30.186Z,58.80
2018-03-30T09:20:59.117Z,58.80
2018-03-30T09:23:27.254Z,58.70
2018-03-30T09:25:56.197Z,59.20
2018-03-30T09:28:24.352Z,59.20
2018-03-30T09:30:52.505Z,58.10
2018-03-30T09:33:27.003Z,58.60
2018-03-30T09:35:55.908Z,58.60
2018-03-30T09:38:24.905Z,58.30
2018-03-30T09:40:53.113Z,58.30
2018-03-30T09:43:21.287Z,58.60
2018-03-30T09:45:49.722Z,59.10
2018-03-30T09:48:19.415Z,57.70
2018-03-30T09:50:47.722Z,57.70
2018-03-30T09:53:15.874Z,58.60
2018-03-30T09:55:44.726Z,58.70
2018-03-30T09:58:12.871Z,59.50
2018-03-30T10:00:43.927Z,57.50
2018-03-30T10:03:12.085Z,57.50
2018-03-30T10:05:40.246Z,58.00
2018-03-30T10:08:08.412Z,58.80
2018-03-30T10:10:37.316Z,57.80
2018-03-30T10:13:05.604Z,57.80
2018-03-30T10:15:34.124Z,56.90
2018-03-30T10:18:02.343Z,56.40
2018-03-30T10:20:31.252Z,56.60
2018-03-30T10:22:59.409Z,56.60
2018-03-30T10:25:27.671Z,54.10
2018-03-30T10:27:56.745Z,53.60
2018-03-30T10:30:26.423Z,54.20
2018-03-30T10:32:55.163Z,54.20
2018-03-30T10:35:24.073Z,53.20
2018-03-30T10:37:52.222Z,53.20
2018-03-30T10:40:21.248Z,52.40
2018-03-30T10:42:49.397Z,52.40
2018-03-30T10:45:18.502Z,52.20
2018-03-30T10:47:47.417Z,51.30
2018-03-30T10:50:15.757Z,51.30
2018-03-30T10:52:44.690Z,50.80
2018-03-30T10:55:12.826Z,50.70
2018-03-30T10:57:41.715Z,51.70
2018-03-30T11:00:10.647Z,51.60
2018-03-30T11:02:39.069Z,51.50
2018-03-30T11:05:08.730Z,50.30
2018-03-30T11:07:37.611Z,50.30
2018-03-30T11:10:05.746Z,50.10
2018-03-30T11:12:33.979Z,49.20
2018-03-30T11:15:02.245Z,49.30
2018-03-30T11:17:30.483Z,49.60
2018-03-30T11:19:59.980Z,49.00
2018-03-30T11:22:28.127Z,48.90
2018-03-30T11:24:56.324Z,48.10
2018-03-30T11:27:25.216Z,47.30
2018-03-30T11:29:54.127Z,46.90
2018-03-30T11:32:23.025Z,49.10
2018-03-30T11:34:51.176Z,49.10
2018-03-30T11:37:20.098Z,47.50
2018-03-30T11:39:48.249Z,47.40
2018-03-30T11:42:17.133Z,46.20
2018-03-30T11:44:46.096Z,44.30
2018-03-30T11:47:14.218Z,44.30
2018-03-30T11:49:42.406Z,44.70
2018-03-30T11:52:10.617Z,43.80
2018-03-30T11:54:38.868Z,44.70
2018-03-30T11:57:07.004Z,45.60
2018-03-30T11:59:35.977Z,44.60
2018-03-30T12:02:04.198Z,44.50
2018-03-30T12:04:32.343Z,44.30
2018-03-30T12:07:01.250Z,44.40
2018-03-30T12:09:29.535Z,44.30
2018-03-30T12:11:57.804Z,44.00
2018-03-30T12:14:26.086Z,42.80
2018-03-30T12:16:54.343Z,43.30
2018-03-30T12:19:24.588Z,42.60
2018-03-30T12:21:52.761Z,42.50
2018-03-30T12:24:20.909Z,42.10
2018-03-30T12:26:50.150Z,41.90
2018-03-30T12:29:18.453Z,41.80
2018-03-30T12:31:46.615Z,42.20
2018-03-30T12:34:14.762Z,41.30
2018-03-30T12:36:42.969Z,41.10
2018-03-30T12:39:11.955Z,40.90
2018-03-30T12:41:40.186Z,40.80
2018-03-30T12:44:08.374Z,40.80
2018-03-30T12:46:37.104Z,40.70
2018-03-30T12:49:05.329Z,40.60
2018-03-30T12:51:33.596Z,40.90
2018-03-30T12:54:01.893Z,40.80
2018-03-30T12:56:30.038Z,41.00
2018-03-30T12:58:58.243Z,40.40
2018-03-30T13:01:26.394Z,39.90
2018-03-30T13:03:55.302Z,40.30
2018-03-30T13:06:23.471Z,40.30
2018-03-30T13:08:52.572Z,40.60
2018-03-30T13:11:20.712Z,40.60
2018-03-30T13:13:49.778Z,41.00
2018-03-30T13:16:17.950Z,40.90
2018-03-30T13:18:46.141Z,40.70
2018-03-30T13:21:14.556Z,40.40
2018-03-30T13:23:42.734Z,40.30
2018-03-30T13:26:11.039Z,41.00
2018-03-30T13:28:39.996Z,40.60
2018-03-30T13:31:08.474Z,41.10
2018-03-30T13:33:36.769Z,41.40
2018-03-30T13:36:04.966Z,39.80
2018-03-30T13:38:33.197Z,40.80
2018-03-30T13:41:01.346Z,39.70
2018-03-30T13:43:30.264Z,39.70
2018-03-30T13:45:58.511Z,39.70
2018-03-30T13:48:26.795Z,39.20
2018-03-30T13:51:03.560Z,38.00
2018-03-30T13:53:32.719Z,38.50
2018-03-30T13:56:00.902Z,38.50
2018-03-30T13:58:29.940Z,39.30
2018-03-30T14:00:58.855Z,38.20
2018-03-30T14:03:30.833Z,38.20
2018-03-30T14:06:19.663Z,38.20
2018-03-30T14:08:54.132Z,39.80
2018-03-30T14:11:37.974Z,40.20
2018-03-30T14:14:06.156Z,40.20
2018-03-30T14:16:36.868Z,39.00
2018-03-30T14:19:19.922Z,39.40
2018-03-30T14:22:03.866Z,39.70
2018-03-30T14:24:32.027Z,39.40
2018-03-30T14:27:15.956Z,38.30
2018-03-30T14:29:55.818Z,40.10
2018-03-30T14:32:39.063Z,41.00
2018-03-30T14:35:17.809Z,39.70
2018-03-30T14:40:42.405Z,39.40
2018-03-30T14:43:23.184Z,39.80
2018-03-30T14:46:09.065Z,39.70
2018-03-30T14:48:38.761Z,40.00
2018-03-30T14:51:25.628Z,41.40
2018-03-30T14:54:00.847Z,41.30
2018-03-30T14:56:46.825Z,41.20
2018-03-30T14:59:24.354Z,40.60
2018-03-30T15:01:53.436Z,41.00
2018-03-30T15:04:23.492Z,39.90
2018-03-30T15:07:10.915Z,40.00
2018-03-30T15:09:46.692Z,39.90
2018-03-30T15:15:30.264Z,40.40
2018-03-30T15:18:18.554Z,40.70
2018-03-30T15:20:48.309Z,40.70
2018-03-30T15:23:21.802Z,41.00
2018-03-30T15:26:07.773Z,41.10
2018-03-30T15:28:37.025Z,41.10
2018-03-30T15:31:07.245Z,41.50
2018-03-30T15:33:54.228Z,41.40
2018-03-30T15:36:33.350Z,41.40
2018-03-30T15:39:01.527Z,41.90
2018-03-30T15:41:30.614Z,42.60
2018-03-30T15:43:58.811Z,42.90
2018-03-30T15:46:45.693Z,42.70
2018-03-30T15:49:13.826Z,43.20
2018-03-30T15:51:52.756Z,44.00
2018-03-30T15:54:22.340Z,44.50
2018-03-30T15:56:50.653Z,45.20
2018-03-30T15:59:18.824Z,45.00
2018-03-30T16:01:47.248Z,49.90
2018-03-30T16:04:16.903Z,55.80
2018-03-30T16:06:45.105Z,55.70
2018-03-30T16:09:27.791Z,58.40
2018-03-30T16:11:57.553Z,58.70
2018-03-30T16:14:25.691Z,59.40
2018-03-30T16:16:53.858Z,59.00
2018-03-30T16:19:21.619Z,59.20
2018-03-30T16:21:49.399Z,60.00
2018-03-30T16:24:17.216Z,59.20
2018-03-30T16:26:44.914Z,59.10
2018-03-30T16:29:12.568Z,59.60
2018-03-30T16:31:40.550Z,60.50
2018-03-30T16:34:08.250Z,62.00
2018-03-30T16:36:35.906Z,62.40
2018-03-30T16:39:03.731Z,62.50
2018-03-30T16:41:31.674Z,63.20
2018-03-30T16:44:01.482Z,64.70
2018-03-30T16:46:29.359Z,64.70
2018-03-30T16:48:57.827Z,67.20
2018-03-30T16:51:26.237Z,69.20
2018-03-30T16:53:53.980Z,69.10
2018-03-30T16:56:21.780Z,70.50
2018-03-30T16:58:49.453Z,71.30
2018-03-30T17:01:17.180Z,73.60
2018-03-30T17:03:44.985Z,74.90
2018-03-30T17:06:12.915Z,75.10
2018-03-30T17:08:41.240Z,75.10
2018-03-30T17:11:09.019Z,77.10
2018-03-30T17:13:36.686Z,77.20
2018-03-30T17:16:04.352Z,77.10
2018-03-30T17:18:32.052Z,77.60
2018-03-30T17:20:59.692Z,77.20
2018-03-30T17:23:28.186Z,77.50
2018-03-30T17:25:55.846Z,77.30
2018-03-30T17:28:23.556Z,77.80
2018-03-30T17:30:51.463Z,79.60
2018-03-30T17:33:19.854Z,81.00
2018-03-30T17:35:47.534Z,80.80
2018-03-30T17:38:15.264Z,82.90
2018-03-30T17:40:43.971Z,87.00
2018-03-30T17:43:11.635Z,87.00
2018-03-30T17:45:39.290Z,86.50
2018-03-30T17:48:06.981Z,88.60
2018-03-30T17:50:34.631Z,87.80
2018-03-30T17:53:02.382Z,88.70
2018-03-30T17:55:30.050Z,89.60
2018-03-30T17:57:57.826Z,89.60
2018-03-30T18:00:25.654Z,87.80
2018-03-30T18:02:54.085Z,88.20
2018-03-30T18:05:21.757Z,88.20
2018-03-30T18:07:49.420Z,88.60
2018-03-30T18:10:18.484Z,89.50
2018-03-30T18:12:46.138Z,90.30
2018-03-30T18:15:13.851Z,90.30
2018-03-30T18:17:41.514Z,90.30
2018-03-30T18:20:09.296Z,90.10
2018-03-30T18:22:36.944Z,90.80
2018-03-30T18:25:04.653Z,91.20
2018-03-30T18:27:32.309Z,91.20
2018-03-30T18:29:59.941Z,91.50
2018-03-30T18:32:27.612Z,91.90
2018-03-30T18:34:56.028Z,92.20
2018-03-30T18:37:24.063Z,92.20
2018-03-30T18:39:51.731Z,92.00
2018-03-30T18:42:20.151Z,91.80
2018-03-30T18:44:47.854Z,91.70
2018-03-30T18:47:15.496Z,91.80
2018-03-30T18:49:43.269Z,91.90
2018-03-30T18:52:10.920Z,91.90
2018-03-30T18:54:38.585Z,91.70
2018-03-30T18:57:07.416Z,91.60
2018-03-30T18:59:35.092Z,91.70
2018-03-30T19:02:02.953Z,91.70
2018-03-30T19:04:31.565Z,91.70
2018-03-30T19:06:59.386Z,91.70
2018-03-30T19:09:27.103Z,91.90
2018-03-30T19:11:54.766Z,91.90
2018-03-30T19:14:22.445Z,91.60
2018-03-30T19:16:50.107Z,91.60
2018-03-30T19:19:17.741Z,91.10
2018-03-30T19:21:45.394Z,91.10
2018-03-30T19:24:14.130Z,91.10
2018-03-30T19:26:41.770Z,91.00
2018-03-30T19:29:09.438Z,90.80
2018-03-30T19:31:37.116Z,90.60
2018-03-30T19:34:05.530Z,90.20
2018-03-30T19:36:33.282Z,90.20
2018-03-30T19:39:01.002Z,90.20
2018-03-30T19:41:28.660Z,90.10
2018-03-30T19:43:56.318Z,90.30
2018-03-30T19:46:23.991Z,90.60
2018-03-30T19:48:52.446Z,91.30
2018-03-30T19:51:20.186Z,91.20
2018-03-30T19:53:47.932Z,91.40
2018-03-30T19:56:17.198Z,91.50
2018-03-30T19:58:44.844Z,91.50
2018-03-30T20:01:12.680Z,91.70
2018-03-30T20:03:40.540Z,91.90
2018-03-30T20:06:08.264Z,92.20
2018-03-30T20:08:35.932Z,92.20
2018-03-30T20:11:04.379Z,91.80
2018-03-30T20:13:32.023Z,91.70
2018-03-30T20:15:59.754Z,91.50
2018-03-30T20:18:28.161Z,91.70
2018-03-30T20:20:56.073Z,91.70
2018-03-30T20:23:23.737Z,91.70
2018-03-30T20:25:51.389Z,92.00
2018-03-30T20:28:19.049Z,92.00
2018-03-30T20:30:47.870Z,91.90
2018-03-30T20:33:15.528Z,91.90
2018-03-30T20:35:43.990Z,92.00
2018-03-30T20:38:11.668Z,92.00
2018-03-30T20:40:39.337Z,92.10
2018-03-30T20:43:07.744Z,92.20
2018-03-30T20:45:35.574Z,92.10
2018-03-30T20:48:03.309Z,92.30
2018-03-30T20:50:30.961Z,92.20
2018-03-30T20:52:58.651Z,92.40
2018-03-30T20:55:26.300Z,92.30
2018-03-30T20:57:53.996Z,92.50
2018-03-30T21:00:21.819Z,92.70
2018-03-30T21:02:49.726Z,92.60
2018-03-30T21:05:18.146Z,93.20
2018-03-30T21:07:46.815Z,92.90
2018-03-30T21:10:14.472Z,92.70
2018-03-30T21:12:42.140Z,92.60
2018-03-30T21:15:10.870Z,92.60
2018-03-30T21:17:38.694Z,92.60
2018-03-30T21:20:06.350Z,92.50
2018-03-30T21:22:34.023Z,92.50
2018-03-30T21:25:01.744Z,92.30
2018-03-30T21:27:29.402Z,92.30
2018-03-30T21:29:57.987Z,92.40
2018-03-30T21:32:25.649Z,92.30
2018-03-30T21:34:53.442Z,92.50
2018-03-30T21:37:21.891Z,92.50
2018-03-30T21:39:49.549Z,92.50
2018-03-30T21:42:17.248Z,92.60
2018-03-30T21:44:44.909Z,92.50
2018-03-30T21:47:12.594Z,92.70
2018-03-30T21:49:40.443Z,92.70
2018-03-30T21:52:08.106Z,92.60
2018-03-30T21:54:35.934Z,92.80
2018-03-30T21:57:03.733Z,92.80
2018-03-30T21:59:31.423Z,92.70
2018-03-30T22:01:59.906Z,92.80
2018-03-30T22:04:27.591Z,92.80
2018-03-30T22:06:55.633Z,92.80
2018-03-30T22:09:23.464Z,92.90
2018-03-30T22:11:51.912Z,92.80
2018-03-30T22:14:19.593Z,92.80
2018-03-30T22:16:47.244Z,92.90
2018-03-30T22:19:15.695Z,93.10
2018-03-30T22:21:43.524Z,93.10
2018-03-30T22:24:11.192Z,93.10
2018-03-30T22:26:38.830Z,93.10
2018-03-30T22:29:07.251Z,93.30
2018-03-30T22:31:34.871Z,93.30
2018-03-30T22:34:02.616Z,93.20
2018-03-30T22:36:30.310Z,93.10
2018-03-30T22:38:57.933Z,93.20
2018-03-30T22:41:25.568Z,93.20
2018-03-30T22:43:53.221Z,93.40
2018-03-30T22:46:20.926Z,93.50
2018-03-30T22:48:48.588Z,93.60
2018-03-30T22:51:16.198Z,93.60
2018-03-30T22:53:44.763Z,93.60
2018-03-30T22:56:13.436Z,93.40
2018-03-30T22:58:41.653Z,93.40
2018-03-30T23:01:09.448Z,93.50
2018-03-30T23:03:37.241Z,93.50
2018-03-30T23:06:05.468Z,93.50
2018-03-30T23:08:33.252Z,93.60
2018-03-30T23:11:00.891Z,93.70
2018-03-30T23:13:28.535Z,93.90
2018-03-30T23:15:56.161Z,93.70
2018-03-30T23:18:24.555Z,93.70
2018-03-30T23:20:52.248Z,93.60
2018-03-30T23:23:20.733Z,93.60
2018-03-30T23:25:48.395Z,93.60
2018-03-30T23:28:16.032Z,93.60
2018-03-30T23:30:43.659Z,93.50
2018-03-30T23:33:12.066Z,93.50
2018-03-30T23:35:41.116Z,93.70
2018-03-30T23:38:08.764Z,93.60
2018-03-30T23:40:36.436Z,93.80
2018-03-30T23:43:04.094Z,93.80
2018-03-30T23:45:31.741Z,93.90
2018-03-30T23:47:59.378Z,94.00
2018-03-30T23:50:27.117Z,93.80
2018-03-30T23:52:55.522Z,93.80
2018-03-30T23:55:23.165Z,93.80
2018-03-30T23:57:51.573Z,93.80
